sensor_id;sensor_type;location;lat;lon;timestamp;P1;durP1;ratioP1;P2;durP2;ratioP2
23498;SDS011;11926;48.120;11.562;2022-08-19T00:01:07;6.18;;;5.07;;
23498;SDS011;11926;48.120;11.562;2022-08-19T00:03:54;6.20;;;5.30;;
23498;SDS011;11926;48.120;11.562;2022-08-19T00:06:43;7.03;;;4.60;;
23498;SDS011;11926;48.120;11.562;2022-08-19T00:09:34;6.80;;;5.57;;
23498;SDS011;11926;48.120;11.562;2022-08-19T00:12:21;6.30;;;5.18;;
23498;SDS011;11926;48.120;11.562;2022-08-19T00:15:10;10.05;;;5.70;;
23498;SDS011;11926;48.120;11.562;2022-08-19T00:18:00;9.57;;;6.05;;
23498;SDS011;11926;48.120;11.562;2022-08-19T00:20:47;9.52;;;6.28;;
23498;SDS011;11926;48.120;11.562;2022-08-19T00:23:35;10.18;;;7.03;;
23498;SDS011;11926;48.120;11.562;2022-08-19T00:26:25;11.68;;;6.65;;
23498;SDS011;11926;48.120;11.562;2022-08-19T00:29:14;9.65;;;7.40;;
23498;SDS011;11926;48.120;11.562;2022-08-19T00:32:03;10.55;;;6.80;;
23498;SDS011;11926;48.120;11.562;2022-08-19T00:34:54;9.75;;;7.50;;
23498;SDS011;11926;48.120;11.562;2022-08-19T00:37:42;10.38;;;7.50;;
23498;SDS011;11926;48.120;11.562;2022-08-19T00:40:30;10.75;;;7.75;;
23498;SDS011;11926;48.120;11.562;2022-08-19T00:43:21;9.68;;;7.80;;
23498;SDS011;11926;48.120;11.562;2022-08-19T00:46:12;12.75;;;7.75;;
23498;SDS011;11926;48.120;11.562;2022-08-19T00:48:59;13.00;;;8.40;;
23498;SDS011;11926;48.120;11.562;2022-08-19T00:51:51;12.65;;;7.85;;
23498;SDS011;11926;48.120;11.562;2022-08-19T00:54:42;13.53;;;9.33;;
23498;SDS011;11926;48.120;11.562;2022-08-19T00:57:38;14.95;;;9.55;;
23498;SDS011;11926;48.120;11.562;2022-08-19T01:03:23;11.18;;;9.05;;
23498;SDS011;11926;48.120;11.562;2022-08-19T01:06:11;10.73;;;9.02;;
23498;SDS011;11926;48.120;11.562;2022-08-19T01:09:04;10.32;;;9.20;;
23498;SDS011;11926;48.120;11.562;2022-08-19T01:11:52;13.55;;;10.00;;
23498;SDS011;11926;48.120;11.562;2022-08-19T01:14:40;14.82;;;10.63;;
23498;SDS011;11926;48.120;11.562;2022-08-19T01:17:30;15.30;;;10.05;;
23498;SDS011;11926;48.120;11.562;2022-08-19T01:20:20;16.70;;;10.20;;
23498;SDS011;11926;48.120;11.562;2022-08-19T01:23:10;12.30;;;9.60;;
23498;SDS011;11926;48.120;11.562;2022-08-19T01:25:59;12.82;;;10.40;;
23498;SDS011;11926;48.120;11.562;2022-08-19T01:28:47;13.35;;;10.18;;
23498;SDS011;11926;48.120;11.562;2022-08-19T01:31:36;15.95;;;10.75;;
23498;SDS011;11926;48.120;11.562;2022-08-19T01:34:24;15.68;;;11.25;;
23498;SDS011;11926;48.120;11.562;2022-08-19T01:37:12;18.27;;;10.70;;
23498;SDS011;11926;48.120;11.562;2022-08-19T01:40:13;13.68;;;9.93;;
23498;SDS011;11926;48.120;11.562;2022-08-19T01:43:04;14.45;;;11.18;;
23498;SDS011;11926;48.120;11.562;2022-08-19T01:45:53;13.65;;;10.27;;
23498;SDS011;11926;48.120;11.562;2022-08-19T01:48:41;12.93;;;10.45;;
23498;SDS011;11926;48.120;11.562;2022-08-19T01:51:32;12.82;;;9.80;;
23498;SDS011;11926;48.120;11.562;2022-08-19T01:54:24;12.10;;;10.10;;
23498;SDS011;11926;48.120;11.562;2022-08-19T01:57:13;12.85;;;9.95;;
23498;SDS011;11926;48.120;11.562;2022-08-19T02:00:03;12.50;;;9.93;;
23498;SDS011;11926;48.120;11.562;2022-08-19T02:02:55;11.02;;;9.52;;
23498;SDS011;11926;48.120;11.562;2022-08-19T02:05:43;15.00;;;10.35;;
23498;SDS011;11926;48.120;11.562;2022-08-19T02:08:31;14.57;;;9.32;;
23498;SDS011;11926;48.120;11.562;2022-08-19T02:11:22;12.93;;;9.52;;
23498;SDS011;11926;48.120;11.562;2022-08-19T02:14:13;11.60;;;8.68;;
23498;SDS011;11926;48.120;11.562;2022-08-19T02:17:00;12.57;;;9.50;;
23498;SDS011;11926;48.120;11.562;2022-08-19T02:19:47;13.25;;;8.90;;
23498;SDS011;11926;48.120;11.562;2022-08-19T02:22:35;12.00;;;9.20;;
23498;SDS011;11926;48.120;11.562;2022-08-19T02:25:23;11.75;;;9.00;;
23498;SDS011;11926;48.120;11.562;2022-08-19T02:28:10;13.75;;;8.90;;
23498;SDS011;11926;48.120;11.562;2022-08-19T02:31:07;12.60;;;9.95;;
23498;SDS011;11926;48.120;11.562;2022-08-19T02:33:56;13.73;;;8.85;;
23498;SDS011;11926;48.120;11.562;2022-08-19T02:36:43;11.10;;;8.32;;
23498;SDS011;11926;48.120;11.562;2022-08-19T02:39:36;10.03;;;7.83;;
23498;SDS011;11926;48.120;11.562;2022-08-19T02:42:22;9.82;;;8.20;;
23498;SDS011;11926;48.120;11.562;2022-08-19T02:45:11;11.23;;;8.32;;
23498;SDS011;11926;48.120;11.562;2022-08-19T02:48:00;11.48;;;7.80;;
23498;SDS011;11926;48.120;11.562;2022-08-19T02:50:57;11.32;;;8.15;;
23498;SDS011;11926;48.120;11.562;2022-08-19T02:53:45;9.98;;;8.10;;
23498;SDS011;11926;48.120;11.562;2022-08-19T02:56:34;9.30;;;7.85;;
23498;SDS011;11926;48.120;11.562;2022-08-19T02:59:22;9.88;;;7.65;;
23498;SDS011;11926;48.120;11.562;2022-08-19T03:02:11;11.10;;;8.00;;
23498;SDS011;11926;48.120;11.562;2022-08-19T03:05:00;8.80;;;7.53;;
23498;SDS011;11926;48.120;11.562;2022-08-19T03:07:49;12.27;;;8.30;;
23498;SDS011;11926;48.120;11.562;2022-08-19T03:10:39;9.85;;;8.00;;
23498;SDS011;11926;48.120;11.562;2022-08-19T03:13:30;10.00;;;7.28;;
23498;SDS011;11926;48.120;11.562;2022-08-19T03:16:18;10.35;;;7.45;;
23498;SDS011;11926;48.120;11.562;2022-08-19T03:19:08;11.65;;;7.90;;
23498;SDS011;11926;48.120;11.562;2022-08-19T03:21:57;12.18;;;7.57;;
23498;SDS011;11926;48.120;11.562;2022-08-19T03:24:46;10.10;;;7.75;;
23498;SDS011;11926;48.120;11.562;2022-08-19T03:27:33;9.63;;;7.40;;
23498;SDS011;11926;48.120;11.562;2022-08-19T03:30:20;8.52;;;7.35;;
23498;SDS011;11926;48.120;11.562;2022-08-19T03:33:08;11.10;;;7.60;;
23498;SDS011;11926;48.120;11.562;2022-08-19T03:36:03;9.48;;;7.07;;
23498;SDS011;11926;48.120;11.562;2022-08-19T03:38:57;10.18;;;7.63;;
23498;SDS011;11926;48.120;11.562;2022-08-19T03:41:47;11.77;;;8.30;;
23498;SDS011;11926;48.120;11.562;2022-08-19T03:45:02;12.32;;;7.63;;
23498;SDS011;11926;48.120;11.562;2022-08-19T03:47:49;9.65;;;7.45;;
23498;SDS011;11926;48.120;11.562;2022-08-19T03:50:38;11.15;;;7.82;;
23498;SDS011;11926;48.120;11.562;2022-08-19T03:53:26;13.98;;;7.68;;
23498;SDS011;11926;48.120;11.562;2022-08-19T03:56:17;16.05;;;7.80;;
23498;SDS011;11926;48.120;11.562;2022-08-19T03:59:05;8.25;;;7.07;;
23498;SDS011;11926;48.120;11.562;2022-08-19T04:01:54;9.38;;;7.65;;
23498;SDS011;11926;48.120;11.562;2022-08-19T04:04:43;9.98;;;7.60;;
23498;SDS011;11926;48.120;11.562;2022-08-19T04:07:31;10.07;;;7.50;;
23498;SDS011;11926;48.120;11.562;2022-08-19T04:10:18;10.25;;;7.15;;
23498;SDS011;11926;48.120;11.562;2022-08-19T04:13:07;10.52;;;7.47;;
23498;SDS011;11926;48.120;11.562;2022-08-19T04:15:54;10.00;;;7.47;;
23498;SDS011;11926;48.120;11.562;2022-08-19T04:18:42;9.80;;;8.18;;
23498;SDS011;11926;48.120;11.562;2022-08-19T04:21:30;11.60;;;8.32;;
23498;SDS011;11926;48.120;11.562;2022-08-19T04:24:18;13.73;;;8.73;;
23498;SDS011;11926;48.120;11.562;2022-08-19T04:27:07;10.80;;;8.55;;
23498;SDS011;11926;48.120;11.562;2022-08-19T04:29:56;11.43;;;8.65;;
23498;SDS011;11926;48.120;11.562;2022-08-19T04:32:44;11.95;;;8.50;;
23498;SDS011;11926;48.120;11.562;2022-08-19T04:35:34;13.65;;;9.45;;
23498;SDS011;11926;48.120;11.562;2022-08-19T04:38:23;16.05;;;9.82;;
23498;SDS011;11926;48.120;11.562;2022-08-19T04:41:10;13.05;;;9.45;;
23498;SDS011;11926;48.120;11.562;2022-08-19T04:44:12;13.25;;;9.68;;
23498;SDS011;11926;48.120;11.562;2022-08-19T04:47:04;13.73;;;9.38;;
23498;SDS011;11926;48.120;11.562;2022-08-19T04:49:56;13.07;;;9.30;;
23498;SDS011;11926;48.120;11.562;2022-08-19T04:52:43;12.30;;;9.75;;
23498;SDS011;11926;48.120;11.562;2022-08-19T04:55:31;16.83;;;10.27;;
23498;SDS011;11926;48.120;11.562;2022-08-19T04:58:23;13.82;;;9.30;;
23498;SDS011;11926;48.120;11.562;2022-08-19T05:01:11;12.35;;;9.32;;
23498;SDS011;11926;48.120;11.562;2022-08-19T05:04:02;14.05;;;9.60;;
23498;SDS011;11926;48.120;11.562;2022-08-19T05:06:51;12.20;;;9.13;;
23498;SDS011;11926;48.120;11.562;2022-08-19T05:09:47;13.82;;;9.90;;
23498;SDS011;11926;48.120;11.562;2022-08-19T05:12:43;12.18;;;9.60;;
23498;SDS011;11926;48.120;11.562;2022-08-19T05:15:30;14.55;;;10.15;;
23498;SDS011;11926;48.120;11.562;2022-08-19T05:18:18;16.85;;;11.20;;
23498;SDS011;11926;48.120;11.562;2022-08-19T05:21:21;18.55;;;9.18;;
23498;SDS011;11926;48.120;11.562;2022-08-19T05:24:28;19.00;;;9.90;;
23498;SDS011;11926;48.120;11.562;2022-08-19T05:27:17;12.25;;;8.88;;
23498;SDS011;11926;48.120;11.562;2022-08-19T05:30:03;14.18;;;8.82;;
23498;SDS011;11926;48.120;11.562;2022-08-19T05:32:50;13.35;;;9.68;;
23498;SDS011;11926;48.120;11.562;2022-08-19T05:35:39;13.00;;;9.55;;
23498;SDS011;11926;48.120;11.562;2022-08-19T05:38:31;12.57;;;9.18;;
23498;SDS011;11926;48.120;11.562;2022-08-19T05:41:19;15.10;;;9.55;;
23498;SDS011;11926;48.120;11.562;2022-08-19T05:44:15;12.55;;;9.95;;
23498;SDS011;11926;48.120;11.562;2022-08-19T05:47:17;16.27;;;9.30;;
23498;SDS011;11926;48.120;11.562;2022-08-19T05:50:06;17.35;;;10.55;;
23498;SDS011;11926;48.120;11.562;2022-08-19T05:52:54;13.80;;;9.38;;
23498;SDS011;11926;48.120;11.562;2022-08-19T05:55:43;14.50;;;9.95;;
23498;SDS011;11926;48.120;11.562;2022-08-19T05:58:30;13.88;;;9.77;;
23498;SDS011;11926;48.120;11.562;2022-08-19T06:01:18;13.00;;;10.10;;
23498;SDS011;11926;48.120;11.562;2022-08-19T06:04:06;13.35;;;10.07;;
23498;SDS011;11926;48.120;11.562;2022-08-19T06:06:54;13.15;;;10.57;;
23498;SDS011;11926;48.120;11.562;2022-08-19T06:09:41;13.95;;;11.00;;
23498;SDS011;11926;48.120;11.562;2022-08-19T06:12:46;17.33;;;11.82;;
23498;SDS011;11926;48.120;11.562;2022-08-19T06:15:34;19.48;;;11.38;;
23498;SDS011;11926;48.120;11.562;2022-08-19T06:18:21;15.48;;;11.70;;
23498;SDS011;11926;48.120;11.562;2022-08-19T06:21:09;22.95;;;11.65;;
23498;SDS011;11926;48.120;11.562;2022-08-19T06:23:57;15.20;;;11.30;;
23498;SDS011;11926;48.120;11.562;2022-08-19T06:26:47;17.48;;;11.90;;
23498;SDS011;11926;48.120;11.562;2022-08-19T06:29:39;15.85;;;11.75;;
23498;SDS011;11926;48.120;11.562;2022-08-19T06:32:27;16.27;;;12.00;;
23498;SDS011;11926;48.120;11.562;2022-08-19T06:35:15;14.98;;;12.23;;
23498;SDS011;11926;48.120;11.562;2022-08-19T06:38:03;16.70;;;11.80;;
23498;SDS011;11926;48.120;11.562;2022-08-19T06:40:50;15.23;;;12.68;;
23498;SDS011;11926;48.120;11.562;2022-08-19T06:43:52;18.20;;;13.70;;
23498;SDS011;11926;48.120;11.562;2022-08-19T06:46:43;18.55;;;13.45;;
23498;SDS011;11926;48.120;11.562;2022-08-19T06:49:39;21.38;;;13.60;;
23498;SDS011;11926;48.120;11.562;2022-08-19T06:52:31;19.15;;;14.68;;
23498;SDS011;11926;48.120;11.562;2022-08-19T06:55:22;19.48;;;14.40;;
23498;SDS011;11926;48.120;11.562;2022-08-19T06:58:10;21.75;;;14.57;;
23498;SDS011;11926;48.120;11.562;2022-08-19T07:00:59;20.48;;;14.38;;
23498;SDS011;11926;48.120;11.562;2022-08-19T07:03:54;17.17;;;13.48;;
23498;SDS011;11926;48.120;11.562;2022-08-19T07:06:43;21.10;;;14.98;;
23498;SDS011;11926;48.120;11.562;2022-08-19T07:09:40;20.92;;;15.38;;
23498;SDS011;11926;48.120;11.562;2022-08-19T07:12:45;20.60;;;15.13;;
23498;SDS011;11926;48.120;11.562;2022-08-19T07:15:35;22.52;;;16.77;;
23498;SDS011;11926;48.120;11.562;2022-08-19T07:18:24;21.98;;;16.50;;
23498;SDS011;11926;48.120;11.562;2022-08-19T07:21:14;24.67;;;17.23;;
23498;SDS011;11926;48.120;11.562;2022-08-19T07:24:02;27.40;;;18.70;;
23498;SDS011;11926;48.120;11.562;2022-08-19T07:26:55;28.05;;;18.92;;
23498;SDS011;11926;48.120;11.562;2022-08-19T07:29:51;27.17;;;18.52;;
23498;SDS011;11926;48.120;11.562;2022-08-19T07:32:42;29.30;;;20.63;;
23498;SDS011;11926;48.120;11.562;2022-08-19T07:35:30;26.15;;;19.98;;
23498;SDS011;11926;48.120;11.562;2022-08-19T07:38:20;25.75;;;19.50;;
23498;SDS011;11926;48.120;11.562;2022-08-19T07:41:08;25.55;;;19.00;;
23498;SDS011;11926;48.120;11.562;2022-08-19T07:43:57;26.92;;;18.48;;
23498;SDS011;11926;48.120;11.562;2022-08-19T07:46:49;27.80;;;20.17;;
23498;SDS011;11926;48.120;11.562;2022-08-19T07:49:39;24.90;;;19.45;;
23498;SDS011;11926;48.120;11.562;2022-08-19T07:52:27;27.60;;;20.30;;
23498;SDS011;11926;48.120;11.562;2022-08-19T07:55:17;26.65;;;19.50;;
23498;SDS011;11926;48.120;11.562;2022-08-19T07:58:29;28.13;;;19.13;;
23498;SDS011;11926;48.120;11.562;2022-08-19T08:04:08;33.78;;;23.58;;
23498;SDS011;11926;48.120;11.562;2022-08-19T08:07:10;29.92;;;22.35;;
23498;SDS011;11926;48.120;11.562;2022-08-19T08:10:17;29.63;;;23.58;;
23498;SDS011;11926;48.120;11.562;2022-08-19T08:13:06;29.08;;;22.30;;
23498;SDS011;11926;48.120;11.562;2022-08-19T08:15:56;29.20;;;23.02;;
23498;SDS011;11926;48.120;11.562;2022-08-19T08:18:42;30.42;;;22.75;;
23498;SDS011;11926;48.120;11.562;2022-08-19T08:21:37;33.17;;;25.45;;
23498;SDS011;11926;48.120;11.562;2022-08-19T08:24:26;27.63;;;22.20;;
23498;SDS011;11926;48.120;11.562;2022-08-19T08:27:17;33.25;;;22.98;;
23498;SDS011;11926;48.120;11.562;2022-08-19T08:33:30;33.65;;;24.10;;
23498;SDS011;11926;48.120;11.562;2022-08-19T08:36:19;35.50;;;25.45;;
23498;SDS011;11926;48.120;11.562;2022-08-19T08:39:07;32.30;;;23.05;;
23498;SDS011;11926;48.120;11.562;2022-08-19T08:41:58;30.77;;;23.00;;
23498;SDS011;11926;48.120;11.562;2022-08-19T08:45:04;32.85;;;24.20;;
23498;SDS011;11926;48.120;11.562;2022-08-19T08:48:02;31.10;;;23.67;;
23498;SDS011;11926;48.120;11.562;2022-08-19T08:51:10;32.92;;;23.92;;
23498;SDS011;11926;48.120;11.562;2022-08-19T08:54:06;35.00;;;24.38;;
23498;SDS011;11926;48.120;11.562;2022-08-19T08:56:55;35.63;;;24.15;;
23498;SDS011;11926;48.120;11.562;2022-08-19T08:59:43;31.27;;;24.23;;
23498;SDS011;11926;48.120;11.562;2022-08-19T09:02:37;34.00;;;25.40;;
23498;SDS011;11926;48.120;11.562;2022-08-19T09:05:32;34.55;;;23.38;;
23498;SDS011;11926;48.120;11.562;2022-08-19T09:08:36;35.03;;;24.23;;
23498;SDS011;11926;48.120;11.562;2022-08-19T09:11:36;33.67;;;24.63;;
23498;SDS011;11926;48.120;11.562;2022-08-19T09:14:38;37.72;;;25.08;;
23498;SDS011;11926;48.120;11.562;2022-08-19T09:17:38;37.13;;;24.88;;
23498;SDS011;11926;48.120;11.562;2022-08-19T09:20:25;30.48;;;22.60;;
23498;SDS011;11926;48.120;11.562;2022-08-19T09:23:13;37.22;;;24.90;;
23498;SDS011;11926;48.120;11.562;2022-08-19T09:26:01;37.85;;;25.15;;
23498;SDS011;11926;48.120;11.562;2022-08-19T09:31:43;37.60;;;24.20;;
23498;SDS011;11926;48.120;11.562;2022-08-19T09:34:32;37.25;;;24.55;;
23498;SDS011;11926;48.120;11.562;2022-08-19T09:37:22;32.42;;;23.55;;
23498;SDS011;11926;48.120;11.562;2022-08-19T09:40:11;32.33;;;22.65;;
23498;SDS011;11926;48.120;11.562;2022-08-19T09:42:59;32.90;;;22.23;;
23498;SDS011;11926;48.120;11.562;2022-08-19T09:45:58;34.60;;;22.95;;
23498;SDS011;11926;48.120;11.562;2022-08-19T09:48:45;34.85;;;23.52;;
23498;SDS011;11926;48.120;11.562;2022-08-19T09:51:35;34.85;;;22.73;;
23498;SDS011;11926;48.120;11.562;2022-08-19T09:54:23;32.80;;;22.60;;
23498;SDS011;11926;48.120;11.562;2022-08-19T09:57:11;40.97;;;26.20;;
23498;SDS011;11926;48.120;11.562;2022-08-19T10:00:00;37.72;;;25.65;;
23498;SDS011;11926;48.120;11.562;2022-08-19T10:02:51;32.25;;;22.75;;
23498;SDS011;11926;48.120;11.562;2022-08-19T10:05:41;35.42;;;23.30;;
23498;SDS011;11926;48.120;11.562;2022-08-19T10:08:44;40.72;;;24.65;;
23498;SDS011;11926;48.120;11.562;2022-08-19T10:11:35;35.17;;;24.40;;
23498;SDS011;11926;48.120;11.562;2022-08-19T10:14:25;30.55;;;21.42;;
23498;SDS011;11926;48.120;11.562;2022-08-19T10:17:14;33.30;;;22.95;;
23498;SDS011;11926;48.120;11.562;2022-08-19T10:20:07;36.67;;;24.55;;
23498;SDS011;11926;48.120;11.562;2022-08-19T10:22:55;27.60;;;20.95;;
23498;SDS011;11926;48.120;11.562;2022-08-19T10:25:47;37.90;;;23.73;;
23498;SDS011;11926;48.120;11.562;2022-08-19T10:28:35;39.13;;;24.50;;
23498;SDS011;11926;48.120;11.562;2022-08-19T10:31:28;31.40;;;20.85;;
23498;SDS011;11926;48.120;11.562;2022-08-19T10:34:37;28.80;;;20.30;;
23498;SDS011;11926;48.120;11.562;2022-08-19T10:37:34;30.58;;;22.33;;
23498;SDS011;11926;48.120;11.562;2022-08-19T10:40:42;22.67;;;17.95;;
23498;SDS011;11926;48.120;11.562;2022-08-19T10:43:32;28.25;;;19.98;;
23498;SDS011;11926;48.120;11.562;2022-08-19T10:46:21;37.53;;;24.70;;
23498;SDS011;11926;48.120;11.562;2022-08-19T10:49:10;25.83;;;19.00;;
23498;SDS011;11926;48.120;11.562;2022-08-19T10:51:58;22.73;;;17.35;;
23498;SDS011;11926;48.120;11.562;2022-08-19T10:55:04;22.58;;;16.98;;
23498;SDS011;11926;48.120;11.562;2022-08-19T10:58:15;19.08;;;15.35;;
23498;SDS011;11926;48.120;11.562;2022-08-19T11:01:04;21.73;;;15.73;;
23498;SDS011;11926;48.120;11.562;2022-08-19T11:03:50;18.95;;;14.73;;
23498;SDS011;11926;48.120;11.562;2022-08-19T11:06:37;15.65;;;12.13;;
23498;SDS011;11926;48.120;11.562;2022-08-19T11:09:26;17.60;;;13.80;;
23498;SDS011;11926;48.120;11.562;2022-08-19T11:12:18;17.30;;;12.10;;
23498;SDS011;11926;48.120;11.562;2022-08-19T11:15:08;13.82;;;11.65;;
23498;SDS011;11926;48.120;11.562;2022-08-19T11:17:58;15.63;;;12.02;;
23498;SDS011;11926;48.120;11.562;2022-08-19T11:20:46;16.95;;;12.32;;
23498;SDS011;11926;48.120;11.562;2022-08-19T11:23:34;18.45;;;14.07;;
23498;SDS011;11926;48.120;11.562;2022-08-19T11:26:22;19.30;;;14.82;;
23498;SDS011;11926;48.120;11.562;2022-08-19T11:29:11;18.90;;;13.52;;
23498;SDS011;11926;48.120;11.562;2022-08-19T11:32:00;15.75;;;12.55;;
23498;SDS011;11926;48.120;11.562;2022-08-19T11:34:51;13.48;;;10.13;;
23498;SDS011;11926;48.120;11.562;2022-08-19T11:37:39;10.30;;;9.10;;
23498;SDS011;11926;48.120;11.562;2022-08-19T11:40:26;7.78;;;6.53;;
23498;SDS011;11926;48.120;11.562;2022-08-19T11:43:14;6.38;;;5.50;;
23498;SDS011;11926;48.120;11.562;2022-08-19T11:46:03;10.30;;;5.75;;
23498;SDS011;11926;48.120;11.562;2022-08-19T11:48:52;8.60;;;5.57;;
23498;SDS011;11926;48.120;11.562;2022-08-19T11:51:41;6.32;;;5.32;;
23498;SDS011;11926;48.120;11.562;2022-08-19T11:54:29;6.63;;;5.13;;
23498;SDS011;11926;48.120;11.562;2022-08-19T11:57:17;4.53;;;3.90;;
23498;SDS011;11926;48.120;11.562;2022-08-19T12:00:05;6.65;;;4.25;;
23498;SDS011;11926;48.120;11.562;2022-08-19T12:02:54;5.38;;;3.70;;
23498;SDS011;11926;48.120;11.562;2022-08-19T12:05:42;3.75;;;2.50;;
23498;SDS011;11926;48.120;11.562;2022-08-19T12:08:31;4.05;;;2.30;;
23498;SDS011;11926;48.120;11.562;2022-08-19T12:11:18;2.67;;;1.80;;
23498;SDS011;11926;48.120;11.562;2022-08-19T12:14:08;4.78;;;1.70;;
23498;SDS011;11926;48.120;11.562;2022-08-19T12:17:01;2.00;;;1.30;;
23498;SDS011;11926;48.120;11.562;2022-08-19T12:19:50;2.38;;;1.60;;
23498;SDS011;11926;48.120;11.562;2022-08-19T12:22:37;2.92;;;1.58;;
23498;SDS011;11926;48.120;11.562;2022-08-19T12:25:30;2.10;;;1.30;;
23498;SDS011;11926;48.120;11.562;2022-08-19T12:28:18;1.75;;;1.23;;
23498;SDS011;11926;48.120;11.562;2022-08-19T12:31:07;2.40;;;1.50;;
23498;SDS011;11926;48.120;11.562;2022-08-19T12:33:57;2.10;;;1.58;;
23498;SDS011;11926;48.120;11.562;2022-08-19T12:36:48;2.10;;;1.48;;
23498;SDS011;11926;48.120;11.562;2022-08-19T12:39:36;2.22;;;1.50;;
23498;SDS011;11926;48.120;11.562;2022-08-19T12:42:26;3.42;;;1.50;;
23498;SDS011;11926;48.120;11.562;2022-08-19T12:45:13;1.88;;;1.40;;
23498;SDS011;11926;48.120;11.562;2022-08-19T12:48:01;3.50;;;1.30;;
23498;SDS011;11926;48.120;11.562;2022-08-19T12:51:10;4.57;;;1.23;;
23498;SDS011;11926;48.120;11.562;2022-08-19T12:54:00;2.65;;;1.20;;
23498;SDS011;11926;48.120;11.562;2022-08-19T12:56:47;3.70;;;1.65;;
23498;SDS011;11926;48.120;11.562;2022-08-19T12:59:37;2.65;;;1.67;;
23498;SDS011;11926;48.120;11.562;2022-08-19T13:02:24;2.15;;;1.50;;
23498;SDS011;11926;48.120;11.562;2022-08-19T13:05:13;2.72;;;1.48;;
23498;SDS011;11926;48.120;11.562;2022-08-19T13:08:02;2.05;;;1.42;;
23498;SDS011;11926;48.120;11.562;2022-08-19T13:10:49;2.50;;;1.50;;
23498;SDS011;11926;48.120;11.562;2022-08-19T13:13:37;3.05;;;2.10;;
23498;SDS011;11926;48.120;11.562;2022-08-19T13:16:28;3.50;;;1.65;;
23498;SDS011;11926;48.120;11.562;2022-08-19T13:19:16;3.15;;;1.88;;
23498;SDS011;11926;48.120;11.562;2022-08-19T13:22:06;2.08;;;1.52;;
23498;SDS011;11926;48.120;11.562;2022-08-19T13:24:59;3.17;;;1.60;;
23498;SDS011;11926;48.120;11.562;2022-08-19T13:27:47;3.53;;;1.40;;
23498;SDS011;11926;48.120;11.562;2022-08-19T13:30:36;2.13;;;1.38;;
23498;SDS011;11926;48.120;11.562;2022-08-19T13:33:38;1.98;;;1.25;;
23498;SDS011;11926;48.120;11.562;2022-08-19T13:36:24;3.72;;;1.38;;
23498;SDS011;11926;48.120;11.562;2022-08-19T13:39:11;2.38;;;1.70;;
23498;SDS011;11926;48.120;11.562;2022-08-19T13:41:58;2.55;;;1.70;;
23498;SDS011;11926;48.120;11.562;2022-08-19T13:44:46;2.83;;;2.15;;
23498;SDS011;11926;48.120;11.562;2022-08-19T13:47:33;2.92;;;2.08;;
23498;SDS011;11926;48.120;11.562;2022-08-19T13:50:30;2.88;;;2.10;;
23498;SDS011;11926;48.120;11.562;2022-08-19T13:53:18;4.65;;;2.13;;
23498;SDS011;11926;48.120;11.562;2022-08-19T13:56:06;3.28;;;2.20;;
23498;SDS011;11926;48.120;11.562;2022-08-19T13:58:56;3.33;;;1.95;;
23498;SDS011;11926;48.120;11.562;2022-08-19T14:01:44;3.17;;;2.17;;
23498;SDS011;11926;48.120;11.562;2022-08-19T14:04:31;5.15;;;2.47;;
23498;SDS011;11926;48.120;11.562;2022-08-19T14:07:19;3.25;;;2.70;;
23498;SDS011;11926;48.120;11.562;2022-08-19T14:10:09;3.53;;;2.70;;
23498;SDS011;11926;48.120;11.562;2022-08-19T14:13:00;3.60;;;2.80;;
23498;SDS011;11926;48.120;11.562;2022-08-19T14:15:48;3.30;;;2.90;;
23498;SDS011;11926;48.120;11.562;2022-08-19T14:18:36;3.58;;;2.72;;
23498;SDS011;11926;48.120;11.562;2022-08-19T14:21:24;3.60;;;2.90;;
23498;SDS011;11926;48.120;11.562;2022-08-19T14:24:13;4.60;;;3.25;;
23498;SDS011;11926;48.120;11.562;2022-08-19T14:27:01;3.53;;;3.08;;
23498;SDS011;11926;48.120;11.562;2022-08-19T14:29:49;4.18;;;3.10;;
23498;SDS011;11926;48.120;11.562;2022-08-19T14:32:37;4.40;;;3.03;;
23498;SDS011;11926;48.120;11.562;2022-08-19T14:35:24;3.80;;;2.63;;
23498;SDS011;11926;48.120;11.562;2022-08-19T14:38:15;3.45;;;2.70;;
23498;SDS011;11926;48.120;11.562;2022-08-19T14:41:19;3.67;;;3.00;;
23498;SDS011;11926;48.120;11.562;2022-08-19T14:44:08;3.50;;;2.30;;
23498;SDS011;11926;48.120;11.562;2022-08-19T14:46:57;2.33;;;1.92;;
23498;SDS011;11926;48.120;11.562;2022-08-19T14:49:47;2.63;;;2.05;;
23498;SDS011;11926;48.120;11.562;2022-08-19T14:52:34;2.42;;;1.92;;
23498;SDS011;11926;48.120;11.562;2022-08-19T14:55:21;2.58;;;2.03;;
23498;SDS011;11926;48.120;11.562;2022-08-19T14:58:10;2.88;;;2.10;;
23498;SDS011;11926;48.120;11.562;2022-08-19T15:01:15;2.90;;;2.10;;
23498;SDS011;11926;48.120;11.562;2022-08-19T15:04:02;3.15;;;2.10;;
23498;SDS011;11926;48.120;11.562;2022-08-19T15:06:50;2.60;;;1.90;;
23498;SDS011;11926;48.120;11.562;2022-08-19T15:09:37;2.90;;;2.30;;
23498;SDS011;11926;48.120;11.562;2022-08-19T15:12:25;7.75;;;2.55;;
23498;SDS011;11926;48.120;11.562;2022-08-19T15:15:14;3.17;;;2.40;;
23498;SDS011;11926;48.120;11.562;2022-08-19T15:18:02;3.30;;;2.60;;
23498;SDS011;11926;48.120;11.562;2022-08-19T15:20:50;3.75;;;2.30;;
23498;SDS011;11926;48.120;11.562;2022-08-19T15:23:38;3.65;;;2.50;;
23498;SDS011;11926;48.120;11.562;2022-08-19T15:26:29;5.72;;;3.30;;
23498;SDS011;11926;48.120;11.562;2022-08-19T15:29:17;6.90;;;3.28;;
23498;SDS011;11926;48.120;11.562;2022-08-19T15:32:07;5.93;;;2.80;;
23498;SDS011;11926;48.120;11.562;2022-08-19T15:34:54;4.22;;;3.05;;
23498;SDS011;11926;48.120;11.562;2022-08-19T15:37:41;5.53;;;3.53;;
23498;SDS011;11926;48.120;11.562;2022-08-19T15:40:31;6.28;;;3.85;;
23498;SDS011;11926;48.120;11.562;2022-08-19T15:43:18;6.38;;;5.15;;
23498;SDS011;11926;48.120;11.562;2022-08-19T15:46:07;9.43;;;5.35;;
23498;SDS011;11926;48.120;11.562;2022-08-19T15:49:02;8.07;;;6.28;;
23498;SDS011;11926;48.120;11.562;2022-08-19T15:51:51;8.57;;;7.15;;
23498;SDS011;11926;48.120;11.562;2022-08-19T15:54:42;8.40;;;7.47;;
23498;SDS011;11926;48.120;11.562;2022-08-19T15:57:29;9.63;;;7.88;;
23498;SDS011;11926;48.120;11.562;2022-08-19T16:00:32;9.52;;;6.93;;
23498;SDS011;11926;48.120;11.562;2022-08-19T16:03:37;9.88;;;7.78;;
23498;SDS011;11926;48.120;11.562;2022-08-19T16:06:27;8.75;;;7.53;;
23498;SDS011;11926;48.120;11.562;2022-08-19T16:09:14;8.40;;;7.50;;
23498;SDS011;11926;48.120;11.562;2022-08-19T16:12:02;9.23;;;7.88;;
23498;SDS011;11926;48.120;11.562;2022-08-19T16:14:53;8.55;;;7.45;;
23498;SDS011;11926;48.120;11.562;2022-08-19T16:17:40;9.43;;;6.93;;
23498;SDS011;11926;48.120;11.562;2022-08-19T16:20:40;8.30;;;7.25;;
23498;SDS011;11926;48.120;11.562;2022-08-19T16:23:30;7.35;;;6.40;;
23498;SDS011;11926;48.120;11.562;2022-08-19T16:26:18;8.13;;;6.70;;
23498;SDS011;11926;48.120;11.562;2022-08-19T16:29:06;7.50;;;6.35;;
23498;SDS011;11926;48.120;11.562;2022-08-19T16:31:57;7.72;;;6.03;;
23498;SDS011;11926;48.120;11.562;2022-08-19T16:34:47;7.40;;;5.05;;
23498;SDS011;11926;48.120;11.562;2022-08-19T16:37:34;4.47;;;4.00;;
23498;SDS011;11926;48.120;11.562;2022-08-19T16:40:23;4.43;;;3.75;;
23498;SDS011;11926;48.120;11.562;2022-08-19T16:43:11;4.78;;;4.28;;
23498;SDS011;11926;48.120;11.562;2022-08-19T16:45:58;5.30;;;4.25;;
23498;SDS011;11926;48.120;11.562;2022-08-19T16:48:46;4.65;;;3.90;;